Time;durP1;ratioP1;P1;durP2;ratioP2;P2;SDS_P1;SDS_P2;PMS_P1;PMS_P2;Temp;Humidity;BMP_temperature;BMP_pressure;BME280_temperature;BME280_humidity;BME280_pressure;Samples;Min_cycle;Max_cycle;Signal;HPM_P1;HPM_P2
2023/01/11 00:01:23;;;;;;;8.13;1.92;;;;;;;;;;6231624;22;20012;-88
2023/01/11 00:03:51;;;;;;;5.07;1.70;;;;;;;;;;6236786;22;20042;-88
2023/01/11 00:06:19;;;;;;;5.88;1.83;;;;;;;;;;6203200;23;20354;-89
2023/01/11 00:08:47;;;;;;;7.60;1.80;;;;;;;;;;6212479;22;20020;-88
2023/01/11 00:11:39;;;;;;;7.97;1.98;;;;;;;;;;6243703;22;20432;-89
2023/01/11 00:14:07;;;;;;;9.45;2.20;;;;;;;;;;6264470;22;20027;-89
2023/01/11 00:16:39;;;;;;;6.20;2.05;;;;;;;;;;6264810;22;20020;-89
2023/01/11 00:19:31;;;;;;;6.90;1.88;;;;;;;;;;6243424;22;20028;-89
2023/01/11 00:21:59;;;;;;;8.80;2.00;;;;;;;;;;6264481;22;20024;-89
2023/01/11 00:24:32;;;;;;;4.10;1.95;;;;;;;;;;6236661;22;20464;-90
2023/01/11 00:27:05;;;;;;;11.13;2.40;;;;;;;;;;6202412;23;20016;-89
2023/01/11 00:29:33;;;;;;;4.90;1.75;;;;;;;;;;6227063;23;20051;-89
2023/01/11 00:32:01;;;;;;;8.68;2.00;;;;;;;;;;6236977;22;20058;-89
2023/01/11 00:34:29;;;;;;;5.22;1.77;;;;;;;;;;6202054;23;20016;-89
2023/01/11 00:37:21;;;;;;;5.40;2.00;;;;;;;;;;6264289;22;20030;-89
2023/01/11 00:39:49;;;;;;;6.95;1.80;;;;;;;;;;6203260;23;20026;-90
2023/01/11 00:47:59;;;;;;;6.18;2.15;;;;;;;;;;6243479;22;20042;-88
2023/01/11 00:50:35;;;;;;;5.72;2.00;;;;;;;;;;6222095;22;20015;-88
2023/01/11 00:53:03;;;;;;;5.05;1.90;;;;;;;;;;6230066;23;20020;-89
2023/01/11 00:55:57;;;;;;;6.25;1.60;;;;;;;;;;6224291;23;20074;-90
2023/01/11 00:58:25;;;;;;;9.13;2.72;;;;;;;;;;6230118;23;20487;-89
2023/01/11 01:00:53;;;;;;;4.18;2.00;;;;;;;;;;6252710;23;20023;-89
2023/01/11 01:03:25;;;;;;;8.05;2.42;;;;;;;;;;6207662;23;20078;-90
2023/01/11 01:05:54;;;;;;;6.80;2.67;;;;;;;;;;6261819;23;20074;-90
2023/01/11 01:08:47;;;;;;;4.60;2.10;;;;;;;;;;6228122;23;20384;-89
2023/01/11 01:11:39;;;;;;;7.82;2.03;;;;;;;;;;6254028;23;20026;-89
2023/01/11 01:14:28;;;;;;;9.27;2.03;;;;;;;;;;6221076;23;20083;-89
2023/01/11 01:17:08;;;;;;;9.23;2.58;;;;;;;;;;6258303;23;20019;-90
2023/01/11 01:19:36;;;;;;;7.00;2.00;;;;;;;;;;6203841;23;20020;-88
2023/01/11 01:22:05;;;;;;;8.32;2.13;;;;;;;;;;6215664;23;20506;-89
2023/01/11 01:24:33;;;;;;;5.65;1.95;;;;;;;;;;6209571;23;20013;-89
2023/01/11 01:27:01;;;;;;;9.75;3.00;;;;;;;;;;6209170;23;20028;-89
2023/01/11 01:29:29;;;;;;;5.97;2.83;;;;;;;;;;6233505;23;20104;-88
2023/01/11 01:32:00;;;;;;;4.85;1.80;;;;;;;;;;6263043;23;20115;-89
2023/01/11 01:34:27;;;;;;;5.70;1.90;;;;;;;;;;6229853;23;20466;-89
2023/01/11 01:36:55;;;;;;;8.65;2.20;;;;;;;;;;6206434;23;20118;-89
2023/01/11 01:39:27;;;;;;;5.72;1.83;;;;;;;;;;6258092;23;20099;-89
2023/01/11 01:41:55;;;;;;;5.55;2.10;;;;;;;;;;6230901;23;20456;-89
2023/01/11 01:44:54;;;;;;;8.38;2.10;;;;;;;;;;6231367;23;20012;-89
2023/01/11 01:47:42;;;;;;;6.45;1.83;;;;;;;;;;6257028;23;20066;-89
2023/01/11 01:50:14;;;;;;;6.07;1.98;;;;;;;;;;6231161;23;20076;-89
2023/01/11 01:52:47;;;;;;;4.72;1.88;;;;;;;;;;6231338;23;20444;-89
2023/01/11 01:55:21;;;;;;;7.75;1.98;;;;;;;;;;6231860;23;20016;-90
2023/01/11 01:57:50;;;;;;;7.13;1.98;;;;;;;;;;6195578;23;20070;-89
2023/01/11 02:00:23;;;;;;;3.78;1.90;;;;;;;;;;6220035;23;20036;-90
2023/01/11 02:02:51;;;;;;;8.88;2.00;;;;;;;;;;6257074;23;20217;-89
2023/01/11 02:05:19;;;;;;;7.28;1.98;;;;;;;;;;6229873;23;20066;-89
2023/01/11 02:07:47;;;;;;;7.97;2.00;;;;;;;;;;6228783;23;20521;-89
2023/01/11 02:10:21;;;;;;;5.80;1.70;;;;;;;;;;6230432;23;20015;-89
2023/01/11 02:12:57;;;;;;;7.03;1.58;;;;;;;;;;6257760;23;20016;-89
2023/01/11 02:16:15;;;;;;;7.05;1.90;;;;;;;;;;6259864;23;20015;-89
2023/01/11 02:18:43;;;;;;;8.30;1.98;;;;;;;;;;6227156;23;20035;-89
2023/01/11 02:21:38;;;;;;;4.30;1.50;;;;;;;;;;6190236;23;20035;-89
2023/01/11 02:24:57;;;;;;;4.90;1.40;;;;;;;;;;6258800;23;20026;-90
2023/01/11 02:27:49;;;;;;;6.35;1.83;;;;;;;;;;6158531;23;20033;-89
2023/01/11 02:30:42;;;;;;;5.50;1.95;;;;;;;;;;6152854;23;20405;-89
2023/01/11 02:33:37;;;;;;;5.28;1.70;;;;;;;;;;6113475;23;20045;-90
2023/01/11 02:36:50;;;;;;;3.67;1.70;;;;;;;;;;6167709;23;20080;-90
2023/01/11 02:39:34;;;;;;;4.80;1.85;;;;;;;;;;6133707;23;20033;-88
2023/01/11 02:45:02;;;;;;;5.43;1.75;;;;;;;;;;6162475;23;20037;-89
2023/01/11 02:47:59;;;;;;;7.45;1.85;;;;;;;;;;6162853;23;20017;-88
2023/01/11 02:50:31;;;;;;;4.15;1.73;;;;;;;;;;6104415;23;20026;-89
2023/01/11 02:53:06;;;;;;;4.30;1.55;;;;;;;;;;6056325;23;20430;-90
2023/01/11 02:55:42;;;;;;;3.03;1.58;;;;;;;;;;6103352;23;20077;-89
2023/01/11 02:58:11;;;;;;;3.17;1.83;;;;;;;;;;6094635;23;20137;-89
2023/01/11 03:01:03;;;;;;;4.28;1.63;;;;;;;;;;6065382;23;20026;-89
2023/01/11 03:03:57;;;;;;;4.45;1.40;;;;;;;;;;6135675;23;20025;-89
2023/01/11 03:06:33;;;;;;;3.38;1.80;;;;;;;;;;6193689;23;20509;-89
2023/01/11 03:09:13;;;;;;;3.80;1.50;;;;;;;;;;6158635;23;20029;-89
2023/01/11 03:15:01;;;;;;;2.83;1.50;;;;;;;;;;6169567;23;20555;-89
2023/01/11 03:17:56;;;;;;;4.10;1.40;;;;;;;;;;6169519;23;20020;-89
2023/01/11 03:20:31;;;;;;;5.88;1.70;;;;;;;;;;6168365;23;20029;-89
2023/01/11 03:23:43;;;;;;;3.35;1.40;;;;;;;;;;6111868;23;20112;-90
2023/01/11 03:26:44;;;;;;;3.65;1.60;;;;;;;;;;6074199;23;20356;-90
2023/01/11 03:29:55;;;;;;;2.58;1.40;;;;;;;;;;6139953;23;20028;-89
2023/01/11 03:32:25;;;;;;;3.85;1.50;;;;;;;;;;6131013;23;20052;-90
2023/01/11 03:35:23;;;;;;;5.00;1.42;;;;;;;;;;6116262;23;20021;-89
2023/01/11 03:38:09;;;;;;;6.57;1.40;;;;;;;;;;6130903;23;20017;-89
2023/01/11 03:40:42;;;;;;;3.45;1.83;;;;;;;;;;6140699;23;20785;-90
2023/01/11 03:43:12;;;;;;;2.78;1.38;;;;;;;;;;6165380;23;20021;-89
2023/01/11 03:45:50;;;;;;;2.72;1.17;;;;;;;;;;6165898;23;20049;-89
2023/01/11 03:49:01;;;;;;;3.38;1.25;;;;;;;;;;6166915;23;20028;-88
2023/01/11 03:51:55;;;;;;;5.05;1.20;;;;;;;;;;6153083;23;20021;-89
2023/01/11 03:54:30;;;;;;;5.65;1.40;;;;;;;;;;6141978;23;20017;-89
2023/01/11 03:57:28;;;;;;;2.47;1.40;;;;;;;;;;6141246;23;20031;-90
2023/01/11 04:00:23;;;;;;;2.33;1.30;;;;;;;;;;6165098;23;20025;-90
2023/01/11 04:02:55;;;;;;;3.47;1.30;;;;;;;;;;6181743;23;20020;-90
2023/01/11 04:05:23;;;;;;;4.38;1.50;;;;;;;;;;6197139;23;20023;-89
2023/01/11 04:07:51;;;;;;;2.63;1.05;;;;;;;;;;6208053;23;20039;-89
2023/01/11 04:10:19;;;;;;;4.18;1.40;;;;;;;;;;6231980;23;20016;-89
2023/01/11 04:12:47;;;;;;;3.17;1.50;;;;;;;;;;6258906;23;20099;-89
2023/01/11 04:15:41;;;;;;;3.28;1.38;;;;;;;;;;6238112;23;20097;-89
2023/01/11 04:18:09;;;;;;;3.80;1.40;;;;;;;;;;6231977;23;20012;-89
2023/01/11 04:21:01;;;;;;;3.03;1.40;;;;;;;;;;6237194;23;20020;-89
2023/01/11 04:23:33;;;;;;;3.08;1.38;;;;;;;;;;6221448;23;20030;-90
2023/01/11 04:26:01;;;;;;;2.30;1.20;;;;;;;;;;6257638;23;20012;-89
2023/01/11 04:28:29;;;;;;;2.15;1.10;;;;;;;;;;6195923;23;20048;-89
2023/01/11 04:30:57;;;;;;;2.88;1.48;;;;;;;;;;6231644;23;20080;-90
2023/01/11 04:33:25;;;;;;;3.97;1.50;;;;;;;;;;6232970;23;20406;-90
2023/01/11 04:36:17;;;;;;;2.67;1.42;;;;;;;;;;6213049;23;20028;-89
2023/01/11 04:38:45;;;;;;;2.58;1.30;;;;;;;;;;6198352;23;20329;-89
2023/01/11 04:43:59;;;;;;;6.93;1.58;;;;;;;;;;6223286;23;20020;-89
2023/01/11 04:46:31;;;;;;;3.90;1.45;;;;;;;;;;6234641;23;20016;-89
2023/01/11 04:48:59;;;;;;;4.75;1.70;;;;;;;;;;6232884;23;20353;-89
2023/01/11 04:51:27;;;;;;;3.10;1.55;;;;;;;;;;6258883;23;20019;-89
2023/01/11 04:53:55;;;;;;;4.40;1.75;;;;;;;;;;6233018;23;20039;-90
2023/01/11 04:56:23;;;;;;;2.80;1.50;;;;;;;;;;6258764;23;20092;-89
2023/01/11 04:58:55;;;;;;;4.25;1.50;;;;;;;;;;6232362;23;20107;-90
2023/01/11 05:01:23;;;;;;;2.28;1.40;;;;;;;;;;6259807;23;20024;-89
2023/01/11 05:04:21;;;;;;;4.22;1.60;;;;;;;;;;6238658;23;20020;-89
2023/01/11 05:07:13;;;;;;;2.33;1.30;;;;;;;;;;6223857;23;20019;-90
2023/01/11 05:09:41;;;;;;;3.15;1.52;;;;;;;;;;6234700;23;20016;-89
2023/01/11 05:12:13;;;;;;;4.30;1.48;;;;;;;;;;6260686;23;20012;-90
2023/01/11 05:14:41;;;;;;;2.67;1.55;;;;;;;;;;6261886;23;20027;-89
2023/01/11 05:17:19;;;;;;;5.20;1.33;;;;;;;;;;6237321;23;20023;-88
2023/01/11 05:19:47;;;;;;;3.80;1.40;;;;;;;;;;6199407;23;20020;-89
2023/01/11 05:22:15;;;;;;;3.58;1.58;;;;;;;;;;6236735;23;20348;-90
2023/01/11 05:24:47;;;;;;;3.90;1.33;;;;;;;;;;6202315;23;20035;-89
2023/01/11 05:27:15;;;;;;;4.15;1.30;;;;;;;;;;6238767;23;20016;-89
2023/01/11 05:29:43;;;;;;;3.17;1.40;;;;;;;;;;6237090;23;20016;-89
2023/01/11 05:32:15;;;;;;;3.35;1.27;;;;;;;;;;6200327;23;20096;-89
2023/01/11 05:34:47;;;;;;;2.75;1.40;;;;;;;;;;6262165;23;20071;-90
2023/01/11 05:37:15;;;;;;;3.55;1.45;;;;;;;;;;6261363;23;20459;-89
2023/01/11 05:39:43;;;;;;;2.58;1.30;;;;;;;;;;6236892;23;20107;-89
2023/01/11 05:42:11;;;;;;;2.60;1.20;;;;;;;;;;6235670;23;20063;-90
2023/01/11 05:47:25;;;;;;;3.50;1.30;;;;;;;;;;6261443;23;20448;-90
2023/01/11 05:49:53;;;;;;;3.33;1.30;;;;;;;;;;6200621;23;20098;-90
2023/01/11 05:52:25;;;;;;;2.50;1.13;;;;;;;;;;6259813;23;20044;-89
2023/01/11 05:55:23;;;;;;;3.28;1.20;;;;;;;;;;6238938;23;20035;-90
2023/01/11 05:57:51;;;;;;;6.38;1.50;;;;;;;;;;6234423;23;20147;-89
2023/01/11 06:00:43;;;;;;;2.70;1.08;;;;;;;;;;6234080;23;20016;-89
2023/01/11 06:03:15;;;;;;;5.00;1.40;;;;;;;;;;6235083;23;20024;-90
2023/01/11 06:05:43;;;;;;;2.05;1.20;;;;;;;;;;6261188;23;20039;-89
2023/01/11 06:08:13;;;;;;;4.25;1.20;;;;;;;;;;6258282;23;20026;-90
2023/01/11 06:11:05;;;;;;;3.58;1.15;;;;;;;;;;6229180;23;20448;-90
2023/01/11 06:13:33;;;;;;;6.53;1.20;;;;;;;;;;6234886;23;20024;-90
2023/01/11 06:16:04;;;;;;;2.58;0.85;;;;;;;;;;6258854;23;20039;-90
2023/01/11 06:18:40;;;;;;;2.42;1.02;;;;;;;;;;6261100;23;20047;-91
2023/01/11 06:21:09;;;;;;;2.67;1.20;;;;;;;;;;6186410;23;20020;-90
2023/01/11 06:23:40;;;;;;;2.10;1.10;;;;;;;;;;6177204;23;20020;-89
2023/01/11 06:26:12;;;;;;;1.58;0.80;;;;;;;;;;6200164;23;20016;-90
2023/01/11 06:28:45;;;;;;;2.53;1.02;;;;;;;;;;6264932;23;20020;-90
2023/01/11 06:31:15;;;;;;;2.55;1.00;;;;;;;;;;6238029;23;20020;-89
2023/01/11 06:33:45;;;;;;;2.40;1.20;;;;;;;;;;6228261;23;20055;-89
2023/01/11 06:36:14;;;;;;;2.20;1.10;;;;;;;;;;6235104;23;20020;-90
2023/01/11 06:38:47;;;;;;;3.47;1.20;;;;;;;;;;6255617;23;20016;-89
2023/01/11 06:41:39;;;;;;;2.67;1.30;;;;;;;;;;6238483;23;20047;-89
2023/01/11 06:44:07;;;;;;;3.05;1.33;;;;;;;;;;6233593;23;20036;-89
2023/01/11 06:46:59;;;;;;;2.72;1.10;;;;;;;;;;6245913;23;20016;-90
2023/01/11 06:49:27;;;;;;;2.13;1.00;;;;;;;;;;6240788;23;20027;-90
2023/01/11 06:51:55;;;;;;;4.47;1.15;;;;;;;;;;6237016;23;20024;-89
2023/01/11 06:54:24;;;;;;;1.52;0.85;;;;;;;;;;6177831;23;20020;-90
2023/01/11 06:56:53;;;;;;;7.03;1.30;;;;;;;;;;6210254;23;20062;-89
2023/01/11 06:59:21;;;;;;;2.05;1.10;;;;;;;;;;6260789;23;20059;-90
2023/01/11 07:01:49;;;;;;;2.33;0.82;;;;;;;;;;6235238;23;20013;-90
2023/01/11 07:04:23;;;;;;;1.85;1.05;;;;;;;;;;6200137;23;20023;-90
2023/01/11 07:06:55;;;;;;;2.38;1.23;;;;;;;;;;6210764;23;20016;-90
2023/01/11 07:09:47;;;;;;;3.28;1.50;;;;;;;;;;6235676;23;20027;-90
2023/01/11 07:12:15;;;;;;;4.70;1.40;;;;;;;;;;6261896;23;20024;-89
2023/01/11 07:15:09;;;;;;;4.65;1.48;;;;;;;;;;6225204;23;20329;-90
2023/01/11 07:18:03;;;;;;;3.88;1.48;;;;;;;;;;6242143;23;20020;-90
2023/01/11 07:20:31;;;;;;;4.20;1.52;;;;;;;;;;6236552;23;20020;-90
2023/01/11 07:22:59;;;;;;;2.38;1.40;;;;;;;;;;6235586;23;20046;-90
2023/01/11 07:28:21;;;;;;;4.05;2.08;;;;;;;;;;6225011;23;20031;-90
2023/01/11 07:30:53;;;;;;;4.35;2.08;;;;;;;;;;6234401;23;20020;-89
2023/01/11 07:33:27;;;;;;;4.07;2.05;;;;;;;;;;6261088;23;20113;-90
2023/01/11 07:35:55;;;;;;;3.97;1.90;;;;;;;;;;6235994;23;20024;-90
2023/01/11 07:38:23;;;;;;;4.95;2.10;;;;;;;;;;6258531;23;20024;-90
2023/01/11 07:40:51;;;;;;;4.25;1.95;;;;;;;;;;6207926;23;20641;-91
2023/01/11 07:43:21;;;;;;;5.93;2.38;;;;;;;;;;6222826;23;20030;-90
2023/01/11 07:45:51;;;;;;;5.65;2.15;;;;;;;;;;6233087;23;20008;-90
2023/01/11 07:48:24;;;;;;;4.65;2.20;;;;;;;;;;6222594;23;20084;-90
2023/01/11 07:50:53;;;;;;;5.22;2.25;;;;;;;;;;6224273;23;20445;-90
2023/01/11 07:53:24;;;;;;;3.63;2.05;;;;;;;;;;6223851;23;20027;-90
2023/01/11 07:55:56;;;;;;;3.67;2.03;;;;;;;;;;6234051;23;20013;-89
2023/01/11 07:58:30;;;;;;;4.40;2.22;;;;;;;;;;6197621;23;20356;-90
2023/01/11 08:01:25;;;;;;;4.13;2.20;;;;;;;;;;6262609;23;20098;-91
2023/01/11 08:03:59;;;;;;;6.22;2.40;;;;;;;;;;6241540;23;20012;-90
2023/01/11 08:06:29;;;;;;;4.30;2.15;;;;;;;;;;6267644;23;20043;-89
2023/01/11 08:08:59;;;;;;;3.53;2.03;;;;;;;;;;6181519;23;20022;-91
2023/01/11 08:17:11;;;;;;;3.92;2.40;;;;;;;;;;6203265;23;20047;-90
2023/01/11 08:19:39;;;;;;;5.50;2.38;;;;;;;;;;6204470;23;20040;-90
2023/01/11 08:22:31;;;;;;;4.53;2.40;;;;;;;;;;6244586;23;20016;-90
2023/01/11 08:25:23;;;;;;;5.85;2.50;;;;;;;;;;6243178;23;20027;-90
2023/01/11 08:27:59;;;;;;;4.72;2.47;;;;;;;;;;6213965;23;20027;-89
2023/01/11 08:30:27;;;;;;;5.18;2.70;;;;;;;;;;6236727;23;20039;-89
2023/01/11 08:32:56;;;;;;;4.50;2.28;;;;;;;;;;6263488;23;20019;-90
2023/01/11 08:35:24;;;;;;;3.97;2.30;;;;;;;;;;6263505;23;20039;-90
2023/01/11 08:38:17;;;;;;;4.05;2.25;;;;;;;;;;6241306;23;20595;-89
2023/01/11 08:40:49;;;;;;;6.82;2.88;;;;;;;;;;6224888;23;20016;-89
2023/01/11 08:43:17;;;;;;;4.78;2.47;;;;;;;;;;6209956;23;20066;-90
2023/01/11 08:46:11;;;;;;;5.32;2.58;;;;;;;;;;6259724;23;20016;-90
2023/01/11 08:48:39;;;;;;;5.43;2.78;;;;;;;;;;6234876;23;20012;-89
2023/01/11 08:51:07;;;;;;;5.85;2.55;;;;;;;;;;6198969;23;20054;-90
2023/01/11 08:53:35;;;;;;;10.23;2.83;;;;;;;;;;6223404;23;20027;-90
2023/01/11 08:56:03;;;;;;;5.57;2.25;;;;;;;;;;6173465;23;20456;-90
2023/01/11 08:58:55;;;;;;;4.45;2.17;;;;;;;;;;6288131;22;20004;-89
2023/01/11 09:01:23;;;;;;;5.85;2.58;;;;;;;;;;6263707;22;20655;-90
2023/01/11 09:03:51;;;;;;;5.80;3.00;;;;;;;;;;6290169;22;20016;-91
2023/01/11 09:06:19;;;;;;;4.63;2.50;;;;;;;;;;6228550;22;20014;-91
2023/01/11 09:08:47;;;;;;;4.97;2.60;;;;;;;;;;6264189;22;20107;-90
2023/01/11 09:14:01;;;;;;;4.65;2.78;;;;;;;;;;6290322;22;20023;-90
2023/01/11 09:16:29;;;;;;;4.28;2.40;;;;;;;;;;6225671;22;20029;-90
2023/01/11 09:18:57;;;;;;;4.90;2.58;;;;;;;;;;6260335;22;20106;-91
2023/01/11 09:21:25;;;;;;;6.55;2.50;;;;;;;;;;6252546;22;20510;-90
2023/01/11 09:23:53;;;;;;;4.80;2.65;;;;;;;;;;6253367;22;20023;-90
2023/01/11 09:26:45;;;;;;;7.75;2.92;;;;;;;;;;6251203;22;20538;-90
2023/01/11 09:29:37;;;;;;;4.50;2.30;;;;;;;;;;6264387;22;20018;-89
2023/01/11 09:32:10;;;;;;;6.65;2.33;;;;;;;;;;6293475;22;20410;-90
2023/01/11 09:34:43;;;;;;;4.55;2.28;;;;;;;;;;6233771;22;20026;-90
2023/01/11 09:40:22;;;;;;;3.75;2.10;;;;;;;;;;6293463;22;20020;-88
2023/01/11 09:42:53;;;;;;;4.60;2.30;;;;;;;;;;6264991;22;20024;-89
2023/01/11 09:45:23;;;;;;;8.27;3.42;;;;;;;;;;6264270;22;20027;-90
2023/01/11 09:48:10;;;;;;;8.88;2.55;;;;;;;;;;6290290;22;20016;-90
2023/01/11 09:50:44;;;;;;;7.90;2.45;;;;;;;;;;6291134;22;20020;-90
2023/01/11 09:53:30;;;;;;;6.18;2.42;;;;;;;;;;6240301;22;20030;-89
2023/01/11 09:56:02;;;;;;;6.22;2.50;;;;;;;;;;6227345;22;20008;-89
2023/01/11 09:58:55;;;;;;;8.13;2.40;;;;;;;;;;6254552;22;20377;-90
2023/01/11 10:01:45;;;;;;;5.57;2.42;;;;;;;;;;6263395;22;20069;-89
2023/01/11 10:04:46;;;;;;;6.88;2.15;;;;;;;;;;6265370;22;20764;-90
2023/01/11 10:07:42;;;;;;;10.55;2.88;;;;;;;;;;6263409;22;20012;-89
2023/01/11 10:10:28;;;;;;;6.97;2.30;;;;;;;;;;6263737;22;20069;-90
2023/01/11 10:13:29;;;;;;;5.65;2.10;;;;;;;;;;6264133;22;20023;-89
2023/01/11 10:16:55;;;;;;;5.43;2.25;;;;;;;;;;6241384;22;20015;-90
2023/01/11 10:19:47;;;;;;;13.02;2.42;;;;;;;;;;6195979;23;20084;-89
2023/01/11 10:22:45;;;;;;;7.05;2.45;;;;;;;;;;6195203;23;20413;-90
2023/01/11 10:25:17;;;;;;;6.32;2.58;;;;;;;;;;6169908;23;20094;-90
2023/01/11 10:28:00;;;;;;;7.35;2.58;;;;;;;;;;6169783;23;20032;-90
2023/01/11 10:31:06;;;;;;;6.50;2.67;;;;;;;;;;6137086;23;20056;-89
2023/01/11 10:34:40;;;;;;;9.88;2.83;;;;;;;;;;6197508;23;20017;-90
2023/01/11 10:42:22;;;;;;;6.38;2.25;;;;;;;;;;6184076;23;20021;-91
2023/01/11 10:45:24;;;;;;;11.88;2.80;;;;;;;;;;6194675;23;20101;-90
2023/01/11 10:48:00;;;;;;;6.55;2.55;;;;;;;;;;6158418;23;20373;-90
2023/01/11 10:50:35;;;;;;;9.45;2.47;;;;;;;;;;6171063;23;20024;-90
2023/01/11 10:53:16;;;;;;;9.60;2.50;;;;;;;;;;6193690;23;20459;-91
2023/01/11 10:55:56;;;;;;;6.28;1.90;;;;;;;;;;6223474;22;20027;-90
2023/01/11 10:58:48;;;;;;;6.00;2.20;;;;;;;;;;6236683;22;20012;-91
2023/01/11 11:01:44;;;;;;;7.65;2.38;;;;;;;;;;6224530;22;20026;-90
2023/01/11 11:04:25;;;;;;;7.53;2.30;;;;;;;;;;6225847;22;20023;-91
2023/01/11 11:07:10;;;;;;;9.82;2.20;;;;;;;;;;6289234;22;20016;-91
2023/01/11 11:10:04;;;;;;;6.63;2.20;;;;;;;;;;6288802;22;20339;-91
2023/01/11 11:12:35;;;;;;;7.35;2.50;;;;;;;;;;6201559;22;20696;-90
2023/01/11 11:15:12;;;;;;;7.57;1.85;;;;;;;;;;6262894;22;20455;-90
2023/01/11 11:17:47;;;;;;;8.25;2.67;;;;;;;;;;6287903;22;20091;-90
2023/01/11 11:20:20;;;;;;;6.43;2.15;;;;;;;;;;6262569;22;20022;-91
2023/01/11 11:22:51;;;;;;;9.10;2.22;;;;;;;;;;6237402;22;20352;-90
2023/01/11 11:25:26;;;;;;;7.10;2.05;;;;;;;;;;6234884;22;20012;-91
2023/01/11 11:28:02;;;;;;;8.13;1.95;;;;;;;;;;6250518;22;20042;-90
2023/01/11 11:30:33;;;;;;;10.32;2.05;;;;;;;;;;6262367;22;20042;-90
2023/01/11 11:33:07;;;;;;;8.95;1.88;;;;;;;;;;6288019;22;20019;-90
2023/01/11 11:35:40;;;;;;;6.72;1.60;;;;;;;;;;6227895;22;20020;-90
2023/01/11 11:38:39;;;;;;;9.95;2.15;;;;;;;;;;6288262;22;20123;-91
2023/01/11 11:41:15;;;;;;;6.30;2.25;;;;;;;;;;6251175;22;20051;-91
2023/01/11 11:43:45;;;;;;;5.25;2.17;;;;;;;;;;6261917;22;20079;-91
2023/01/11 11:46:25;;;;;;;9.52;2.25;;;;;;;;;;6287583;22;20022;-90
2023/01/11 11:49:15;;;;;;;8.13;2.17;;;;;;;;;;6250890;22;20023;-91
2023/01/11 11:51:45;;;;;;;6.55;1.90;;;;;;;;;;6225473;22;20015;-91
2023/01/11 11:54:40;;;;;;;9.60;2.25;;;;;;;;;;6261186;22;20115;-90
2023/01/11 11:57:38;;;;;;;5.78;1.67;;;;;;;;;;6267189;22;20011;-91
2023/01/11 12:00:29;;;;;;;6.25;1.80;;;;;;;;;;6202029;22;20015;-91
2023/01/11 12:03:01;;;;;;;4.88;1.63;;;;;;;;;;6287094;22;20030;-90
2023/01/11 12:05:35;;;;;;;9.10;1.60;;;;;;;;;;6250885;22;20026;-90
2023/01/11 12:08:30;;;;;;;9.98;1.73;;;;;;;;;;6260387;22;20344;-91
2023/01/11 12:11:06;;;;;;;6.13;1.70;;;;;;;;;;6289100;22;20019;-90
2023/01/11 12:13:39;;;;;;;10.60;1.70;;;;;;;;;;6226125;22;20055;-91
2023/01/11 12:16:21;;;;;;;9.18;1.63;;;;;;;;;;6262032;22;20075;-91
2023/01/11 12:19:41;;;;;;;4.70;1.95;;;;;;;;;;6272699;22;20007;-91
2023/01/11 12:22:28;;;;;;;5.93;1.70;;;;;;;;;;6287800;22;20050;-91
2023/01/11 12:25:14;;;;;;;6.60;1.42;;;;;;;;;;6260591;22;20019;-90
2023/01/11 12:27:58;;;;;;;5.35;1.80;;;;;;;;;;6250186;22;20020;-90
2023/01/11 12:30:51;;;;;;;4.47;1.75;;;;;;;;;;6277550;22;20401;-89
2023/01/11 12:33:46;;;;;;;9.35;1.50;;;;;;;;;;6247903;22;20020;-90
2023/01/11 12:36:24;;;;;;;6.60;1.80;;;;;;;;;;6136217;23;20099;-91
2023/01/11 12:39:20;;;;;;;5.22;1.77;;;;;;;;;;6183985;23;20530;-90
2023/01/11 12:41:59;;;;;;;9.52;1.90;;;;;;;;;;6157749;23;20020;-91
2023/01/11 12:44:32;;;;;;;6.70;1.85;;;;;;;;;;6184852;23;20025;-91
2023/01/11 12:47:08;;;;;;;12.77;2.17;;;;;;;;;;6166775;23;20076;-90
2023/01/11 12:49:56;;;;;;;8.95;1.90;;;;;;;;;;6164237;23;20025;-92
2023/01/11 12:52:45;;;;;;;10.95;2.45;;;;;;;;;;6139038;23;20040;-91
2023/01/11 12:55:49;;;;;;;6.63;2.17;;;;;;;;;;6192113;23;20100;-92
2023/01/11 12:58:31;;;;;;;9.18;1.85;;;;;;;;;;6149227;23;20484;-91
2023/01/11 13:01:25;;;;;;;7.18;2.05;;;;;;;;;;6142575;23;20473;-91
2023/01/11 13:04:28;;;;;;;8.63;2.03;;;;;;;;;;6135313;23;20031;-92
2023/01/11 13:06:59;;;;;;;6.30;2.00;;;;;;;;;;6156170;23;20467;-91
2023/01/11 13:09:37;;;;;;;7.97;2.10;;;;;;;;;;6135823;23;20022;-90
2023/01/11 13:12:16;;;;;;;8.82;2.35;;;;;;;;;;6158606;23;20145;-91
2023/01/11 13:14:56;;;;;;;8.38;1.95;;;;;;;;;;6226790;23;20051;-90
2023/01/11 13:17:41;;;;;;;7.38;1.98;;;;;;;;;;6251335;23;20008;-91
2023/01/11 13:20:57;;;;;;;4.50;1.90;;;;;;;;;;6191260;23;20015;-91
2023/01/11 13:23:39;;;;;;;10.27;2.58;;;;;;;;;;6215687;23;20050;-91
2023/01/11 13:26:41;;;;;;;14.02;2.42;;;;;;;;;;6225828;23;20024;-90
2023/01/11 13:29:24;;;;;;;12.60;2.95;;;;;;;;;;6226023;23;20016;-91
2023/01/11 13:31:53;;;;;;;8.70;2.40;;;;;;;;;;6225350;23;20016;-91
2023/01/11 13:34:25;;;;;;;10.25;2.75;;;;;;;;;;6226199;23;20099;-91
2023/01/11 13:37:05;;;;;;;8.35;2.78;;;;;;;;;;6224757;23;20039;-91
2023/01/11 13:40:01;;;;;;;8.40;2.30;;;;;;;;;;6190925;23;20031;-90
2023/01/11 13:42:46;;;;;;;6.72;2.10;;;;;;;;;;6225313;23;20024;-90
2023/01/11 13:45:29;;;;;;;6.00;2.00;;;;;;;;;;6190044;23;20024;-90
2023/01/11 13:48:04;;;;;;;7.40;2.15;;;;;;;;;;6249222;23;20019;-91
2023/01/11 13:50:46;;;;;;;7.43;2.25;;;;;;;;;;6225674;23;20020;-90
2023/01/11 13:53:37;;;;;;;9.07;2.17;;;;;;;;;;6214899;23;20020;-91
2023/01/11 13:56:19;;;;;;;9.00;2.17;;;;;;;;;;6225031;23;20070;-90
2023/01/11 13:58:57;;;;;;;8.07;1.98;;;;;;;;;;6191243;23;20018;-92
2023/01/11 14:01:43;;;;;;;9.23;2.55;;;;;;;;;;6254785;23;20020;-92
2023/01/11 14:04:24;;;;;;;13.05;2.10;;;;;;;;;;6259944;23;20022;-91
2023/01/11 14:07:30;;;;;;;12.02;1.80;;;;;;;;;;6214201;23;20079;-91
2023/01/11 14:10:06;;;;;;;10.25;1.92;;;;;;;;;;6234643;23;20058;-93
2023/01/11 14:12:40;;;;;;;6.57;1.63;;;;;;;;;;6174928;23;20055;-92
2023/01/11 14:15:40;;;;;;;11.90;1.80;;;;;;;;;;6202076;23;20078;-92
2023/01/11 14:18:16;;;;;;;5.85;1.88;;;;;;;;;;6197885;23;20024;-93
2023/01/11 14:21:03;;;;;;;11.70;2.28;;;;;;;;;;6198799;23;20024;-92
2023/01/11 14:23:48;;;;;;;13.60;2.85;;;;;;;;;;6173049;23;20024;-92
2023/01/11 14:26:43;;;;;;;9.13;2.00;;;;;;;;;;6169483;23;20090;-93
2023/01/11 14:29:58;;;;;;;10.43;2.30;;;;;;;;;;6229125;23;20339;-93
2023/01/11 14:32:58;;;;;;;11.82;1.85;;;;;;;;;;6185430;23;20074;-92
2023/01/11 14:35:54;;;;;;;14.23;1.63;;;;;;;;;;6230875;23;20016;-91
2023/01/11 14:39:01;;;;;;;7.55;2.10;;;;;;;;;;6199331;23;20012;-92
2023/01/11 14:41:38;;;;;;;12.75;1.95;;;;;;;;;;6133552;23;20413;-92
2023/01/11 14:44:07;;;;;;;6.70;1.63;;;;;;;;;;6150126;23;20361;-92
2023/01/11 14:47:11;;;;;;;6.40;1.55;;;;;;;;;;6101686;23;20056;-92
2023/01/11 14:50:09;;;;;;;8.95;2.17;;;;;;;;;;6077224;23;20076;-91
2023/01/11 14:52:38;;;;;;;13.35;1.95;;;;;;;;;;6148561;23;20053;-92
2023/01/11 14:55:19;;;;;;;6.97;1.67;;;;;;;;;;6124283;23;20040;-92
2023/01/11 14:57:55;;;;;;;9.15;2.13;;;;;;;;;;6152436;23;20041;-92
2023/01/11 15:00:22;;;;;;;8.38;1.70;;;;;;;;;;6135741;23;20033;-92
2023/01/11 15:03:00;;;;;;;12.68;2.00;;;;;;;;;;6110597;23;20025;-92
2023/01/11 15:05:48;;;;;;;8.02;1.50;;;;;;;;;;6111017;23;20109;-92
2023/01/11 15:08:43;;;;;;;11.70;1.70;;;;;;;;;;6133777;23;20524;-93
2023/01/11 15:11:40;;;;;;;7.80;1.80;;;;;;;;;;6134800;23;20035;-92
2023/01/11 15:14:27;;;;;;;10.27;1.98;;;;;;;;;;6052442;23;20038;-93
2023/01/11 15:20:14;;;;;;;8.00;1.65;;;;;;;;;;6190409;23;20041;-93
2023/01/11 15:22:44;;;;;;;9.48;1.90;;;;;;;;;;6169234;23;20381;-93
2023/01/11 15:25:24;;;;;;;7.15;1.52;;;;;;;;;;6132769;23;20024;-92
2023/01/11 15:27:54;;;;;;;13.82;2.03;;;;;;;;;;6109535;23;20021;-93
2023/01/11 15:30:29;;;;;;;8.13;1.70;;;;;;;;;;6194007;23;20117;-94
2023/01/11 15:33:18;;;;;;;10.00;1.65;;;;;;;;;;6134711;23;20357;-92
2023/01/11 15:35:56;;;;;;;9.43;1.48;;;;;;;;;;6167968;23;20020;-91
2023/01/11 15:42:07;;;;;;;7.88;1.80;;;;;;;;;;6189098;23;20052;-92
2023/01/11 15:44:53;;;;;;;6.70;2.55;;;;;;;;;;6130228;23;20021;-93
2023/01/11 15:48:05;;;;;;;10.98;2.10;;;;;;;;;;6165359;23;20057;-92
2023/01/11 15:50:35;;;;;;;10.57;1.85;;;;;;;;;;6087426;23;20040;-92
2023/01/11 15:53:14;;;;;;;7.53;1.60;;;;;;;;;;6126053;23;20021;-92
2023/01/11 15:56:08;;;;;;;8.57;2.05;;;;;;;;;;6102565;23;20052;-92
2023/01/11 15:58:49;;;;;;;7.18;1.75;;;;;;;;;;6157967;23;20024;-92
2023/01/11 16:01:27;;;;;;;10.02;2.10;;;;;;;;;;6123733;23;20517;-91
2023/01/11 16:04:22;;;;;;;7.88;2.30;;;;;;;;;;6158129;23;20081;-91
2023/01/11 16:07:01;;;;;;;5.45;1.70;;;;;;;;;;6125085;23;20370;-91
2023/01/11 16:09:47;;;;;;;10.90;1.88;;;;;;;;;;6134306;23;20021;-91
2023/01/11 16:12:56;;;;;;;9.35;2.42;;;;;;;;;;6100677;23;20021;-91
2023/01/11 16:15:43;;;;;;;5.63;1.85;;;;;;;;;;6159014;23;20052;-91
2023/01/11 16:18:34;;;;;;;12.60;2.40;;;;;;;;;;6135909;23;20096;-90
2023/01/11 16:21:06;;;;;;;7.57;1.90;;;;;;;;;;6130017;23;20026;-91
2023/01/11 16:23:33;;;;;;;8.82;1.73;;;;;;;;;;6105207;23;20512;-93
2023/01/11 16:26:01;;;;;;;9.73;2.05;;;;;;;;;;6107081;23;20025;-92
2023/01/11 16:28:29;;;;;;;9.48;1.90;;;;;;;;;;6223676;23;20016;-91
2023/01/11 16:31:00;;;;;;;8.10;2.28;;;;;;;;;;6232402;23;20444;-92
2023/01/11 16:33:32;;;;;;;15.95;2.42;;;;;;;;;;6229224;23;20095;-89
2023/01/11 16:36:04;;;;;;;12.60;2.92;;;;;;;;;;6230811;23;20019;-93
2023/01/11 16:38:39;;;;;;;13.50;4.50;;;;;;;;;;6170819;23;20051;-92